sensor_id;sensor_type;location;lat;lon;timestamp;pressure;altitude;pressure_sealevel;temperature;humidity
10688;BME280;5392;42.688;23.298;2023-05-12T00:00:32;57517.78;;;-144.48;100.00
10688;BME280;5392;42.688;23.298;2023-05-12T00:02:59;57492.75;;;-144.48;100.00
10688;BME280;5392;42.688;23.298;2023-05-12T00:05:29;57486.47;;;-144.48;100.00
10688;BME280;5392;42.688;23.298;2023-05-12T00:07:56;57503.19;;;-144.48;100.00
10688;BME280;5392;42.688;23.298;2023-05-12T00:10:22;57492.75;;;-144.48;100.00
10688;BME280;5392;42.688;23.298;2023-05-12T00:12:49;57494.81;;;-144.48;100.00
10688;BME280;5392;42.688;23.298;2023-05-12T00:15:16;57476.03;;;-144.48;100.00
10688;BME280;5392;42.688;23.298;2023-05-12T00:17:45;57542.84;;;-144.48;100.00
10688;BME280;5392;42.688;23.298;2023-05-12T00:20:11;57496.91;;;-144.48;100.00
10688;BME280;5392;42.688;23.298;2023-05-12T00:22:39;57438.47;;;-144.48;100.00
10688;BME280;5392;42.688;23.298;2023-05-12T00:25:07;57524.06;;;-144.48;100.00
10688;BME280;5392;42.688;23.298;2023-05-12T00:27:33;57486.47;;;-144.48;100.00
10688;BME280;5392;42.688;23.298;2023-05-12T00:30:00;57492.75;;;-144.48;100.00
10688;BME280;5392;42.688;23.298;2023-05-12T00:32:27;57488.56;;;-144.48;100.00
10688;BME280;5392;42.688;23.298;2023-05-12T00:34:53;57480.22;;;-144.48;100.00
10688;BME280;5392;42.688;23.298;2023-05-12T00:37:20;57505.25;;;-144.48;100.00
10688;BME280;5392;42.688;23.298;2023-05-12T00:39:47;57486.47;;;-144.48;100.00
10688;BME280;5392;42.688;23.298;2023-05-12T00:42:13;57484.41;;;-144.48;100.00
10688;BME280;5392;42.688;23.298;2023-05-12T00:44:41;57476.03;;;-144.48;100.00
10688;BME280;5392;42.688;23.298;2023-05-12T00:47:08;57515.69;;;-144.48;100.00
10688;BME280;5392;42.688;23.298;2023-05-12T00:49:35;57540.75;;;-144.48;100.00
10688;BME280;5392;42.688;23.298;2023-05-12T00:52:02;57519.88;;;-144.48;100.00
10688;BME280;5392;42.688;23.298;2023-05-12T00:54:29;57515.69;;;-144.48;100.00
10688;BME280;5392;42.688;23.298;2023-05-12T00:56:56;57524.06;;;-144.48;100.00
10688;BME280;5392;42.688;23.298;2023-05-12T00:59:23;57505.25;;;-144.48;100.00
10688;BME280;5392;42.688;23.298;2023-05-12T01:01:50;57505.25;;;-144.48;100.00
10688;BME280;5392;42.688;23.298;2023-05-12T01:04:17;57499.00;;;-144.48;100.00
10688;BME280;5392;42.688;23.298;2023-05-12T01:06:55;57538.66;;;-144.48;100.00
10688;BME280;5392;42.688;23.298;2023-05-12T01:09:23;57515.69;;;-144.48;100.00
10688;BME280;5392;42.688;23.298;2023-05-12T01:11:50;57521.97;;;-144.48;100.00
10688;BME280;5392;42.688;23.298;2023-05-12T01:14:17;57530.31;;;-144.48;100.00
10688;BME280;5392;42.688;23.298;2023-05-12T01:16:50;57484.41;;;-144.48;100.00
10688;BME280;5392;42.688;23.298;2023-05-12T01:19:40;57532.41;;;-144.48;100.00
10688;BME280;5392;42.688;23.298;2023-05-12T01:22:10;57490.66;;;-144.48;100.00
10688;BME280;5392;42.688;23.298;2023-05-12T01:24:52;57509.44;;;-144.48;100.00
10688;BME280;5392;42.688;23.298;2023-05-12T01:27:20;57480.22;;;-144.48;100.00
10688;BME280;5392;42.688;23.298;2023-05-12T01:29:49;57528.22;;;-144.48;100.00
10688;BME280;5392;42.688;23.298;2023-05-12T01:32:19;57476.03;;;-144.48;100.00
10688;BME280;5392;42.688;23.298;2023-05-12T01:34:47;57530.31;;;-144.48;100.00
10688;BME280;5392;42.688;23.298;2023-05-12T01:37:14;57476.03;;;-144.48;100.00
10688;BME280;5392;42.688;23.298;2023-05-12T01:39:41;57517.78;;;-144.48;100.00
10688;BME280;5392;42.688;23.298;2023-05-12T01:42:08;57555.38;;;-144.48;100.00
10688;BME280;5392;42.688;23.298;2023-05-12T01:44:34;57519.88;;;-144.48;100.00
10688;BME280;5392;42.688;23.298;2023-05-12T01:47:01;57501.09;;;-144.48;100.00
10688;BME280;5392;42.688;23.298;2023-05-12T01:49:28;57532.41;;;-144.48;100.00
10688;BME280;5392;42.688;23.298;2023-05-12T01:51:55;57496.91;;;-144.48;100.00
10688;BME280;5392;42.688;23.298;2023-05-12T01:54:22;57490.66;;;-144.48;100.00
10688;BME280;5392;42.688;23.298;2023-05-12T01:56:48;57503.19;;;-144.48;100.00
10688;BME280;5392;42.688;23.298;2023-05-12T01:59:15;57517.78;;;-144.48;100.00
10688;BME280;5392;42.688;23.298;2023-05-12T02:01:42;57530.31;;;-144.48;100.00
10688;BME280;5392;42.688;23.298;2023-05-12T02:04:09;57542.84;;;-144.48;100.00
10688;BME280;5392;42.688;23.298;2023-05-12T02:06:36;57517.78;;;-144.48;100.00
10688;BME280;5392;42.688;23.298;2023-05-12T02:09:03;57521.97;;;-144.48;100.00
10688;BME280;5392;42.688;23.298;2023-05-12T02:11:29;57551.19;;;-144.48;100.00
10688;BME280;5392;42.688;23.298;2023-05-12T02:13:56;57488.56;;;-144.48;100.00
10688;BME280;5392;42.688;23.298;2023-05-12T02:16:24;57501.09;;;-144.48;100.00
10688;BME280;5392;42.688;23.298;2023-05-12T02:18:50;57478.13;;;-144.48;100.00
10688;BME280;5392;42.688;23.298;2023-05-12T02:21:17;57530.31;;;-144.48;100.00
10688;BME280;5392;42.688;23.298;2023-05-12T02:23:44;57496.91;;;-144.48;100.00
10688;BME280;5392;42.688;23.298;2023-05-12T02:26:10;57476.03;;;-144.48;100.00
10688;BME280;5392;42.688;23.298;2023-05-12T02:28:37;57507.34;;;-144.48;100.00
10688;BME280;5392;42.688;23.298;2023-05-12T02:31:04;57490.66;;;-144.48;100.00
10688;BME280;5392;42.688;23.298;2023-05-12T02:33:31;57526.13;;;-144.48;100.00
10688;BME280;5392;42.688;23.298;2023-05-12T02:35:57;57519.88;;;-144.48;100.00
10688;BME280;5392;42.688;23.298;2023-05-12T02:38:24;57576.22;;;-144.48;100.00
10688;BME280;5392;42.688;23.298;2023-05-12T02:40:51;57488.56;;;-144.48;100.00
10688;BME280;5392;42.688;23.298;2023-05-12T02:43:17;57496.91;;;-144.48;100.00
10688;BME280;5392;42.688;23.298;2023-05-12T02:45:44;57503.19;;;-144.48;100.00
10688;BME280;5392;42.688;23.298;2023-05-12T02:48:11;57532.41;;;-144.48;100.00
10688;BME280;5392;42.688;23.298;2023-05-12T02:50:38;57515.69;;;-144.48;100.00
10688;BME280;5392;42.688;23.298;2023-05-12T02:53:04;57486.47;;;-144.48;100.00
10688;BME280;5392;42.688;23.298;2023-05-12T02:55:31;57540.75;;;-144.48;100.00
10688;BME280;5392;42.688;23.298;2023-05-12T02:57:58;57469.78;;;-144.48;100.00
10688;BME280;5392;42.688;23.298;2023-05-12T03:00:25;57501.09;;;-144.48;100.00
10688;BME280;5392;42.688;23.298;2023-05-12T03:02:51;57530.31;;;-144.48;100.00
10688;BME280;5392;42.688;23.298;2023-05-12T03:05:18;57496.91;;;-144.48;100.00
10688;BME280;5392;42.688;23.298;2023-05-12T03:07:47;57488.56;;;-144.48;100.00
10688;BME280;5392;42.688;23.298;2023-05-12T03:10:16;57524.06;;;-144.48;100.00
10688;BME280;5392;42.688;23.298;2023-05-12T03:12:43;57503.19;;;-144.48;100.00
10688;BME280;5392;42.688;23.298;2023-05-12T03:15:10;57532.41;;;-144.48;100.00
10688;BME280;5392;42.688;23.298;2023-05-12T03:17:37;57501.09;;;-144.48;100.00
10688;BME280;5392;42.688;23.298;2023-05-12T03:20:05;57478.13;;;-144.48;100.00
10688;BME280;5392;42.688;23.298;2023-05-12T03:22:32;57521.97;;;-144.48;100.00
10688;BME280;5392;42.688;23.298;2023-05-12T03:24:59;57509.44;;;-144.48;100.00
10688;BME280;5392;42.688;23.298;2023-05-12T03:27:26;57492.75;;;-144.48;100.00
10688;BME280;5392;42.688;23.298;2023-05-12T03:29:52;57528.22;;;-144.48;100.00
10688;BME280;5392;42.688;23.298;2023-05-12T03:32:19;57528.22;;;-144.48;100.00
10688;BME280;5392;42.688;23.298;2023-05-12T03:34:46;57534.50;;;-144.48;100.00
10688;BME280;5392;42.688;23.298;2023-05-12T03:37:12;57467.69;;;-144.48;100.00
10688;BME280;5392;42.688;23.298;2023-05-12T03:39:39;57524.06;;;-144.48;100.00
10688;BME280;5392;42.688;23.298;2023-05-12T03:42:06;57499.00;;;-144.48;100.00
10688;BME280;5392;42.688;23.298;2023-05-12T03:44:33;57526.13;;;-144.48;100.00
10688;BME280;5392;42.688;23.298;2023-05-12T03:47:00;57553.28;;;-144.48;100.00
10688;BME280;5392;42.688;23.298;2023-05-12T03:49:27;57532.41;;;-144.48;100.00
10688;BME280;5392;42.688;23.298;2023-05-12T03:51:53;57503.19;;;-144.48;100.00
10688;BME280;5392;42.688;23.298;2023-05-12T03:54:20;57482.31;;;-144.48;100.00
10688;BME280;5392;42.688;23.298;2023-05-12T03:56:46;57511.53;;;-144.48;100.00
10688;BME280;5392;42.688;23.298;2023-05-12T03:59:13;57486.47;;;-144.48;100.00
10688;BME280;5392;42.688;23.298;2023-05-12T04:01:40;57505.25;;;-144.48;100.00
10688;BME280;5392;42.688;23.298;2023-05-12T04:04:07;57528.22;;;-144.48;100.00
10688;BME280;5392;42.688;23.298;2023-05-12T04:06:34;57509.44;;;-144.48;100.00
10688;BME280;5392;42.688;23.298;2023-05-12T04:09:02;57530.31;;;-144.48;100.00
10688;BME280;5392;42.688;23.298;2023-05-12T04:11:29;57521.97;;;-144.48;100.00
10688;BME280;5392;42.688;23.298;2023-05-12T04:13:55;57521.97;;;-144.48;100.00
10688;BME280;5392;42.688;23.298;2023-05-12T04:16:22;57524.06;;;-144.48;100.00
10688;BME280;5392;42.688;23.298;2023-05-12T04:18:49;57494.81;;;-144.48;100.00
10688;BME280;5392;42.688;23.298;2023-05-12T04:21:16;57503.19;;;-144.48;100.00
10688;BME280;5392;42.688;23.298;2023-05-12T04:23:42;57505.25;;;-144.48;100.00
10688;BME280;5392;42.688;23.298;2023-05-12T04:26:09;57499.00;;;-144.48;100.00
10688;BME280;5392;42.688;23.298;2023-05-12T04:28:37;57515.69;;;-144.48;100.00
10688;BME280;5392;42.688;23.298;2023-05-12T04:31:04;57538.66;;;-144.48;100.00
10688;BME280;5392;42.688;23.298;2023-05-12T04:33:31;57484.41;;;-144.48;100.00
10688;BME280;5392;42.688;23.298;2023-05-12T04:35:58;57530.31;;;-144.48;100.00
10688;BME280;5392;42.688;23.298;2023-05-12T04:38:24;57488.56;;;-144.48;100.00
10688;BME280;5392;42.688;23.298;2023-05-12T04:40:58;57547.00;;;-144.48;100.00
10688;BME280;5392;42.688;23.298;2023-05-12T04:43:26;57509.44;;;-144.48;100.00
10688;BME280;5392;42.688;23.298;2023-05-12T04:45:56;57507.34;;;-144.48;100.00
10688;BME280;5392;42.688;23.298;2023-05-12T04:48:26;57494.81;;;-144.48;100.00
10688;BME280;5392;42.688;23.298;2023-05-12T04:50:52;57555.38;;;-144.48;100.00
10688;BME280;5392;42.688;23.298;2023-05-12T04:53:19;57532.41;;;-144.48;100.00
10688;BME280;5392;42.688;23.298;2023-05-12T04:55:46;57492.75;;;-144.48;100.00
10688;BME280;5392;42.688;23.298;2023-05-12T04:58:12;57492.75;;;-144.48;100.00
10688;BME280;5392;42.688;23.298;2023-05-12T05:00:39;57488.56;;;-144.48;100.00
10688;BME280;5392;42.688;23.298;2023-05-12T05:03:06;57501.09;;;-144.48;100.00
10688;BME280;5392;42.688;23.298;2023-05-12T05:05:33;57517.78;;;-144.48;100.00
10688;BME280;5392;42.688;23.298;2023-05-12T05:08:00;57480.22;;;-144.48;100.00
10688;BME280;5392;42.688;23.298;2023-05-12T05:10:27;57499.00;;;-144.48;100.00
10688;BME280;5392;42.688;23.298;2023-05-12T05:12:54;57513.63;;;-144.48;100.00
10688;BME280;5392;42.688;23.298;2023-05-12T05:15:20;57519.88;;;-144.48;100.00
10688;BME280;5392;42.688;23.298;2023-05-12T05:17:47;57496.91;;;-144.48;100.00
10688;BME280;5392;42.688;23.298;2023-05-12T05:20:15;57492.75;;;-144.48;100.00
10688;BME280;5392;42.688;23.298;2023-05-12T05:22:44;57486.47;;;-144.48;100.00
10688;BME280;5392;42.688;23.298;2023-05-12T05:25:10;57503.19;;;-144.48;100.00
10688;BME280;5392;42.688;23.298;2023-05-12T05:27:37;57507.34;;;-144.48;100.00
10688;BME280;5392;42.688;23.298;2023-05-12T05:30:07;57494.81;;;-144.48;100.00
10688;BME280;5392;42.688;23.298;2023-05-12T05:32:35;57547.00;;;-144.48;100.00
10688;BME280;5392;42.688;23.298;2023-05-12T05:35:02;57544.94;;;-144.48;100.00
10688;BME280;5392;42.688;23.298;2023-05-12T05:37:29;57542.84;;;-144.48;100.00
10688;BME280;5392;42.688;23.298;2023-05-12T05:39:56;57496.91;;;-144.48;100.00
10688;BME280;5392;42.688;23.298;2023-05-12T05:42:22;57505.25;;;-144.48;100.00
10688;BME280;5392;42.688;23.298;2023-05-12T05:44:49;57517.78;;;-144.48;100.00
10688;BME280;5392;42.688;23.298;2023-05-12T05:47:17;57528.22;;;-144.48;100.00
10688;BME280;5392;42.688;23.298;2023-05-12T05:49:43;57507.34;;;-144.48;100.00
10688;BME280;5392;42.688;23.298;2023-05-12T05:52:10;57530.31;;;-144.48;100.00
10688;BME280;5392;42.688;23.298;2023-05-12T05:54:37;57490.66;;;-144.48;100.00
10688;BME280;5392;42.688;23.298;2023-05-12T05:57:04;57505.25;;;-144.48;100.00
10688;BME280;5392;42.688;23.298;2023-05-12T05:59:30;57515.69;;;-144.48;100.00
10688;BME280;5392;42.688;23.298;2023-05-12T06:01:58;57517.78;;;-144.48;100.00
10688;BME280;5392;42.688;23.298;2023-05-12T06:04:25;57499.00;;;-144.48;100.00
10688;BME280;5392;42.688;23.298;2023-05-12T06:06:53;57534.50;;;-144.48;100.00
10688;BME280;5392;42.688;23.298;2023-05-12T06:09:20;57528.22;;;-144.48;100.00
10688;BME280;5392;42.688;23.298;2023-05-12T06:11:47;57511.53;;;-144.48;100.00
10688;BME280;5392;42.688;23.298;2023-05-12T06:14:14;57494.81;;;-144.48;100.00
10688;BME280;5392;42.688;23.298;2023-05-12T06:16:40;57513.63;;;-144.48;100.00
10688;BME280;5392;42.688;23.298;2023-05-12T06:19:07;57496.91;;;-144.48;100.00
10688;BME280;5392;42.688;23.298;2023-05-12T06:21:34;57521.97;;;-144.48;100.00
10688;BME280;5392;42.688;23.298;2023-05-12T06:24:01;57473.97;;;-144.48;100.00
10688;BME280;5392;42.688;23.298;2023-05-12T06:26:29;57521.97;;;-144.48;100.00
10688;BME280;5392;42.688;23.298;2023-05-12T06:28:55;57463.53;;;-144.48;100.00
10688;BME280;5392;42.688;23.298;2023-05-12T06:31:22;57507.34;;;-144.48;100.00
10688;BME280;5392;42.688;23.298;2023-05-12T06:33:49;57505.25;;;-144.48;100.00
10688;BME280;5392;42.688;23.298;2023-05-12T06:36:16;57467.69;;;-144.48;100.00
10688;BME280;5392;42.688;23.298;2023-05-12T06:38:46;57501.09;;;-144.48;100.00
10688;BME280;5392;42.688;23.298;2023-05-12T06:41:13;57473.97;;;-144.48;100.00
10688;BME280;5392;42.688;23.298;2023-05-12T06:43:40;57513.63;;;-144.48;100.00
10688;BME280;5392;42.688;23.298;2023-05-12T06:46:07;57488.56;;;-144.48;100.00
10688;BME280;5392;42.688;23.298;2023-05-12T06:48:34;57530.31;;;-144.48;100.00
10688;BME280;5392;42.688;23.298;2023-05-12T06:51:01;57509.44;;;-144.48;100.00
10688;BME280;5392;42.688;23.298;2023-05-12T06:53:28;57505.25;;;-144.48;100.00
10688;BME280;5392;42.688;23.298;2023-05-12T06:55:55;57484.41;;;-144.48;100.00
10688;BME280;5392;42.688;23.298;2023-05-12T06:58:22;57476.03;;;-144.48;100.00
10688;BME280;5392;42.688;23.298;2023-05-12T07:00:48;57505.25;;;-144.48;100.00
10688;BME280;5392;42.688;23.298;2023-05-12T07:03:15;57501.09;;;-144.48;100.00
10688;BME280;5392;42.688;23.298;2023-05-12T07:05:42;57507.34;;;-144.48;100.00
10688;BME280;5392;42.688;23.298;2023-05-12T07:08:09;57494.81;;;-144.48;100.00
10688;BME280;5392;42.688;23.298;2023-05-12T07:10:35;57501.09;;;-144.48;100.00
10688;BME280;5392;42.688;23.298;2023-05-12T07:13:03;57499.00;;;-144.48;100.00
10688;BME280;5392;42.688;23.298;2023-05-12T07:15:30;57513.63;;;-144.48;100.00
10688;BME280;5392;42.688;23.298;2023-05-12T07:17:58;57496.91;;;-144.48;100.00
10688;BME280;5392;42.688;23.298;2023-05-12T07:20:25;57509.44;;;-144.48;100.00
10688;BME280;5392;42.688;23.298;2023-05-12T07:22:52;57517.78;;;-144.48;100.00
10688;BME280;5392;42.688;23.298;2023-05-12T07:25:20;57488.56;;;-144.48;100.00
10688;BME280;5392;42.688;23.298;2023-05-12T07:27:48;57499.00;;;-144.48;100.00
10688;BME280;5392;42.688;23.298;2023-05-12T07:30:15;57513.63;;;-144.48;100.00
10688;BME280;5392;42.688;23.298;2023-05-12T07:32:42;57494.81;;;-144.48;100.00
10688;BME280;5392;42.688;23.298;2023-05-12T07:35:09;57517.78;;;-144.48;100.00
10688;BME280;5392;42.688;23.298;2023-05-12T07:37:36;57521.97;;;-144.48;100.00
10688;BME280;5392;42.688;23.298;2023-05-12T07:40:04;57488.56;;;-144.48;100.00
10688;BME280;5392;42.688;23.298;2023-05-12T07:42:30;57490.66;;;-144.48;100.00
10688;BME280;5392;42.688;23.298;2023-05-12T07:44:57;57480.22;;;-144.48;100.00
10688;BME280;5392;42.688;23.298;2023-05-12T07:47:24;57484.41;;;-144.48;100.00
10688;BME280;5392;42.688;23.298;2023-05-12T07:49:51;57505.25;;;-144.48;100.00
10688;BME280;5392;42.688;23.298;2023-05-12T07:52:17;57559.53;;;-144.48;100.00
10688;BME280;5392;42.688;23.298;2023-05-12T07:54:44;57505.25;;;-144.48;100.00
10688;BME280;5392;42.688;23.298;2023-05-12T07:57:11;57509.44;;;-144.48;100.00
10688;BME280;5392;42.688;23.298;2023-05-12T07:59:38;57501.09;;;-144.48;100.00
10688;BME280;5392;42.688;23.298;2023-05-12T08:02:05;57519.88;;;-144.48;100.00
10688;BME280;5392;42.688;23.298;2023-05-12T08:04:32;57513.63;;;-144.48;100.00
10688;BME280;5392;42.688;23.298;2023-05-12T08:06:59;57457.25;;;-144.48;100.00
10688;BME280;5392;42.688;23.298;2023-05-12T08:09:26;57494.81;;;-144.48;100.00
10688;BME280;5392;42.688;23.298;2023-05-12T08:11:53;57490.66;;;-144.48;100.00
10688;BME280;5392;42.688;23.298;2023-05-12T08:14:20;57513.63;;;-144.48;100.00
10688;BME280;5392;42.688;23.298;2023-05-12T08:16:48;57494.81;;;-144.48;100.00
10688;BME280;5392;42.688;23.298;2023-05-12T08:19:14;57490.66;;;-144.48;100.00
10688;BME280;5392;42.688;23.298;2023-05-12T08:21:41;57484.41;;;-144.48;100.00
10688;BME280;5392;42.688;23.298;2023-05-12T08:24:08;57519.88;;;-144.48;100.00
10688;BME280;5392;42.688;23.298;2023-05-12T08:26:35;57486.47;;;-144.48;100.00
10688;BME280;5392;42.688;23.298;2023-05-12T08:29:02;57524.06;;;-144.48;100.00
10688;BME280;5392;42.688;23.298;2023-05-12T08:31:30;57542.84;;;-144.48;100.00
10688;BME280;5392;42.688;23.298;2023-05-12T08:33:57;57467.69;;;-144.48;100.00
10688;BME280;5392;42.688;23.298;2023-05-12T08:36:35;57524.06;;;-144.48;100.00
10688;BME280;5392;42.688;23.298;2023-05-12T08:39:02;57513.63;;;-144.48;100.00
10688;BME280;5392;42.688;23.298;2023-05-12T08:41:42;57526.13;;;-144.48;100.00
10688;BME280;5392;42.688;23.298;2023-05-12T08:44:11;57499.00;;;-144.48;100.00
10688;BME280;5392;42.688;23.298;2023-05-12T08:46:38;57488.56;;;-144.48;100.00
10688;BME280;5392;42.688;23.298;2023-05-12T08:49:09;57517.78;;;-144.48;100.00
10688;BME280;5392;42.688;23.298;2023-05-12T08:51:39;57511.53;;;-144.48;100.00
10688;BME280;5392;42.688;23.298;2023-05-12T08:54:07;57524.06;;;-144.48;100.00
10688;BME280;5392;42.688;23.298;2023-05-12T08:56:37;57503.19;;;-144.48;100.00
10688;BME280;5392;42.688;23.298;2023-05-12T08:59:08;57463.53;;;-144.48;100.00
10688;BME280;5392;42.688;23.298;2023-05-12T09:01:35;57478.13;;;-144.48;100.00
10688;BME280;5392;42.688;23.298;2023-05-12T09:04:03;57490.66;;;-144.48;100.00
10688;BME280;5392;42.688;23.298;2023-05-12T09:06:30;57507.34;;;-144.48;100.00
10688;BME280;5392;42.688;23.298;2023-05-12T09:08:58;57471.88;;;-144.48;99.38
10688;BME280;5392;42.688;23.298;2023-05-12T09:11:25;57513.63;;;-144.48;99.47
10688;BME280;5392;42.688;23.298;2023-05-12T09:14:24;57476.03;;;-144.48;98.59
10688;BME280;5392;42.688;23.298;2023-05-12T09:17:03;57484.41;;;-144.48;98.35
10688;BME280;5392;42.688;23.298;2023-05-12T09:19:30;57480.22;;;-144.48;96.36
10688;BME280;5392;42.688;23.298;2023-05-12T09:21:57;57524.06;;;-144.48;95.05
10688;BME280;5392;42.688;23.298;2023-05-12T09:24:35;57490.66;;;-144.48;95.61
10688;BME280;5392;42.688;23.298;2023-05-12T09:27:02;57459.34;;;-144.48;96.30
10688;BME280;5392;42.688;23.298;2023-05-12T09:29:30;57505.25;;;-144.48;96.19
10688;BME280;5392;42.688;23.298;2023-05-12T09:32:10;57505.25;;;-144.48;96.26
10688;BME280;5392;42.688;23.298;2023-05-12T09:34:37;57459.34;;;-144.48;96.43
10688;BME280;5392;42.688;23.298;2023-05-12T09:37:07;57486.47;;;-144.48;93.24
10688;BME280;5392;42.688;23.298;2023-05-12T09:39:34;57501.09;;;-144.48;92.76
10688;BME280;5392;42.688;23.298;2023-05-12T09:42:09;57480.22;;;-144.48;92.49
10688;BME280;5392;42.688;23.298;2023-05-12T09:44:38;57530.31;;;-144.48;92.75
10688;BME280;5392;42.688;23.298;2023-05-12T09:47:07;57511.53;;;-144.48;92.25
10688;BME280;5392;42.688;23.298;2023-05-12T09:49:35;57471.88;;;-144.48;91.70
10688;BME280;5392;42.688;23.298;2023-05-12T09:52:04;57459.34;;;-144.48;91.03
10688;BME280;5392;42.688;23.298;2023-05-12T09:54:31;57444.72;;;-144.48;89.69
10688;BME280;5392;42.688;23.298;2023-05-12T09:57:01;57467.69;;;-144.48;88.40
10688;BME280;5392;42.688;23.298;2023-05-12T09:59:32;57507.34;;;-144.48;87.29
10688;BME280;5392;42.688;23.298;2023-05-12T10:02:02;57484.41;;;-144.48;86.79
10688;BME280;5392;42.688;23.298;2023-05-12T10:04:41;57455.16;;;-144.48;86.49
10688;BME280;5392;42.688;23.298;2023-05-12T10:07:12;57511.53;;;-144.48;86.07
10688;BME280;5392;42.688;23.298;2023-05-12T10:09:41;57499.00;;;-144.48;85.58
10688;BME280;5392;42.688;23.298;2023-05-12T10:12:08;57482.31;;;-144.48;85.35
10688;BME280;5392;42.688;23.298;2023-05-12T10:14:35;57494.81;;;-144.48;81.60
10688;BME280;5392;42.688;23.298;2023-05-12T10:17:04;57509.44;;;-144.48;81.89
10688;BME280;5392;42.688;23.298;2023-05-12T10:19:34;57513.63;;;-144.48;80.34
10688;BME280;5392;42.688;23.298;2023-05-12T10:22:01;57453.09;;;-144.48;80.19
10688;BME280;5392;42.688;23.298;2023-05-12T10:24:29;57486.47;;;-144.48;79.83
10688;BME280;5392;42.688;23.298;2023-05-12T10:26:56;57469.78;;;-144.48;79.34
10688;BME280;5392;42.688;23.298;2023-05-12T10:29:25;57501.09;;;-144.48;78.14
10688;BME280;5392;42.688;23.298;2023-05-12T10:31:56;57471.88;;;-144.48;78.45
10688;BME280;5392;42.688;23.298;2023-05-12T10:34:38;57478.13;;;-144.48;76.32
10688;BME280;5392;42.688;23.298;2023-05-12T10:37:09;57503.19;;;-144.48;77.32
10688;BME280;5392;42.688;23.298;2023-05-12T10:39:45;57467.69;;;-144.48;75.20
10688;BME280;5392;42.688;23.298;2023-05-12T10:42:16;57488.56;;;-144.48;74.42
10688;BME280;5392;42.688;23.298;2023-05-12T10:44:53;57459.34;;;-144.48;73.43
10688;BME280;5392;42.688;23.298;2023-05-12T10:47:25;57467.69;;;-144.48;68.28
10688;BME280;5392;42.688;23.298;2023-05-12T10:50:01;57463.53;;;-144.48;67.57
10688;BME280;5392;42.688;23.298;2023-05-12T10:52:27;57461.44;;;-144.48;66.49
10688;BME280;5392;42.688;23.298;2023-05-12T10:55:01;57482.31;;;-144.48;65.25
10688;BME280;5392;42.688;23.298;2023-05-12T10:57:30;57503.19;;;-144.48;64.66
10688;BME280;5392;42.688;23.298;2023-05-12T10:59:59;57469.78;;;-144.48;67.61
10688;BME280;5392;42.688;23.298;2023-05-12T11:02:28;57482.31;;;-144.48;67.57
10688;BME280;5392;42.688;23.298;2023-05-12T11:05:00;57428.03;;;-144.48;67.11
10688;BME280;5392;42.688;23.298;2023-05-12T11:07:32;57538.66;;;-144.48;67.36
10688;BME280;5392;42.688;23.298;2023-05-12T11:10:02;57521.97;;;-144.48;65.06
10688;BME280;5392;42.688;23.298;2023-05-12T11:12:32;57467.69;;;-144.48;62.95
10688;BME280;5392;42.688;23.298;2023-05-12T11:15:03;57467.69;;;-144.48;65.35
10688;BME280;5392;42.688;23.298;2023-05-12T11:17:30;57521.97;;;-144.48;68.65
10688;BME280;5392;42.688;23.298;2023-05-12T11:19:57;57509.44;;;-144.48;68.75
10688;BME280;5392;42.688;23.298;2023-05-12T11:22:26;57451.00;;;-144.48;65.91
10688;BME280;5392;42.688;23.298;2023-05-12T11:24:53;57490.66;;;-144.48;67.72
10688;BME280;5392;42.688;23.298;2023-05-12T11:27:21;57501.09;;;-144.48;67.72
10688;BME280;5392;42.688;23.298;2023-05-12T11:29:59;57465.59;;;-144.48;64.75
10688;BME280;5392;42.688;23.298;2023-05-12T11:32:27;57471.88;;;-144.48;63.04
10688;BME280;5392;42.688;23.298;2023-05-12T11:34:55;57471.88;;;-144.48;63.79
10688;BME280;5392;42.688;23.298;2023-05-12T11:37:22;57465.59;;;-144.48;66.11
10688;BME280;5392;42.688;23.298;2023-05-12T11:39:48;57482.31;;;-144.48;66.00
10688;BME280;5392;42.688;23.298;2023-05-12T11:42:18;57524.06;;;-144.48;67.14
10688;BME280;5392;42.688;23.298;2023-05-12T11:44:48;57488.56;;;-144.48;66.12
10688;BME280;5392;42.688;23.298;2023-05-12T11:47:18;57463.53;;;-144.48;66.34
10688;BME280;5392;42.688;23.298;2023-05-12T11:49:47;57455.16;;;-144.48;69.02
10688;BME280;5392;42.688;23.298;2023-05-12T11:52:14;57524.06;;;-144.48;67.13
10688;BME280;5392;42.688;23.298;2023-05-12T11:54:49;57480.22;;;-144.48;67.92
10688;BME280;5392;42.688;23.298;2023-05-12T11:57:29;57496.91;;;-144.48;65.84
10688;BME280;5392;42.688;23.298;2023-05-12T11:59:58;57526.13;;;-144.48;65.87
10688;BME280;5392;42.688;23.298;2023-05-12T12:02:26;57478.13;;;-144.48;64.30
10688;BME280;5392;42.688;23.298;2023-05-12T12:04:53;57476.03;;;-144.48;65.40
10688;BME280;5392;42.688;23.298;2023-05-12T12:07:36;57488.56;;;-144.48;66.04
10688;BME280;5392;42.688;23.298;2023-05-12T12:10:13;57430.13;;;-144.48;66.06
10688;BME280;5392;42.688;23.298;2023-05-12T12:12:41;57484.41;;;-144.48;64.68
10688;BME280;5392;42.688;23.298;2023-05-12T12:15:09;57455.16;;;-144.48;65.16
10688;BME280;5392;42.688;23.298;2023-05-12T12:17:37;57496.91;;;-144.48;65.83
10688;BME280;5392;42.688;23.298;2023-05-12T12:20:06;57490.66;;;-144.48;65.32
10688;BME280;5392;42.688;23.298;2023-05-12T12:22:33;57455.16;;;-144.48;66.37
10688;BME280;5392;42.688;23.298;2023-05-12T12:25:01;57471.88;;;-144.48;65.90
10688;BME280;5392;42.688;23.298;2023-05-12T12:27:28;57488.56;;;-144.48;65.06
10688;BME280;5392;42.688;23.298;2023-05-12T12:29:55;57492.75;;;-144.48;64.97
10688;BME280;5392;42.688;23.298;2023-05-12T12:32:21;57482.31;;;-144.48;65.19
10688;BME280;5392;42.688;23.298;2023-05-12T12:34:48;57482.31;;;-144.48;65.14
10688;BME280;5392;42.688;23.298;2023-05-12T12:37:15;57465.59;;;-144.48;64.39